createdAt,value
2023-03-06T00:01:17.180Z,10.60
2023-03-06T00:04:19.290Z,10.55
2023-03-06T00:07:20.916Z,10.90
2023-03-06T00:10:25.281Z,10.00
2023-03-06T00:13:30.427Z,10.27
2023-03-06T00:16:32.585Z,10.15
2023-03-06T00:19:35.588Z,10.10
2023-03-06T00:22:38.272Z,10.23
2023-03-06T00:25:45.740Z,12.10
2023-03-06T00:28:47.330Z,14.03
2023-03-06T00:31:50.927Z,15.18
2023-03-06T00:34:53.921Z,15.98
2023-03-06T00:37:55.627Z,14.07
2023-03-06T00:40:57.180Z,13.40
2023-03-06T00:44:00.203Z,12.20
2023-03-06T00:47:02.761Z,11.32
2023-03-06T00:50:06.256Z,9.97
2023-03-06T00:53:07.919Z,10.70
2023-03-06T00:56:10.951Z,10.10
2023-03-06T00:59:12.620Z,9.77
2023-03-06T01:02:14.350Z,10.40
2023-03-06T01:05:16.099Z,11.10
2023-03-06T01:08:17.822Z,11.07
2023-03-06T01:11:19.466Z,11.90
2023-03-06T01:14:21.386Z,11.63
2023-03-06T01:17:23.032Z,11.32
2023-03-06T01:20:24.800Z,11.20
2023-03-06T01:23:26.397Z,11.13
2023-03-06T01:26:31.750Z,10.57
2023-03-06T01:29:35.431Z,10.63
2023-03-06T01:32:37.659Z,10.10
2023-03-06T01:35:40.580Z,10.27
2023-03-06T01:38:42.941Z,10.48
2023-03-06T01:41:45.982Z,10.77
2023-03-06T01:45:28.048Z,11.38
2023-03-06T01:48:31.264Z,10.27
2023-03-06T01:51:43.550Z,11.00
2023-03-06T01:54:56.689Z,11.05
2023-03-06T01:58:07.136Z,10.63
2023-03-06T02:01:09.733Z,10.93
2023-03-06T02:04:12.128Z,10.70
2023-03-06T02:07:15.501Z,10.48
2023-03-06T02:10:18.697Z,11.13
2023-03-06T02:13:20.349Z,11.23
2023-03-06T02:16:29.746Z,11.40
2023-03-06T02:20:03.471Z,10.68
2023-03-06T02:23:12.534Z,11.13
2023-03-06T02:26:15.544Z,10.18
2023-03-06T02:29:25.461Z,10.40
2023-03-06T02:32:27.253Z,10.97
2023-03-06T02:35:32.592Z,10.75
2023-03-06T02:38:40.805Z,11.07
2023-03-06T02:41:42.557Z,10.55
2023-03-06T02:44:44.335Z,10.88
2023-03-06T02:47:45.982Z,11.15
2023-03-06T02:50:49.049Z,10.82
2023-03-06T02:53:50.750Z,10.87
2023-03-06T02:56:52.486Z,10.82
2023-03-06T02:59:54.208Z,11.55
2023-03-06T03:02:56.829Z,10.87
2023-03-06T03:05:58.897Z,9.80
2023-03-06T03:09:07.030Z,10.30
2023-03-06T03:12:10.055Z,9.77
2023-03-06T03:15:11.816Z,10.13
2023-03-06T03:18:13.518Z,10.85
2023-03-06T03:21:15.627Z,10.65
2023-03-06T03:24:17.375Z,10.13
2023-03-06T03:27:19.022Z,9.95
2023-03-06T03:30:20.814Z,10.10
2023-03-06T03:33:22.997Z,10.53
2023-03-06T03:36:26.050Z,10.85
2023-03-06T03:39:29.135Z,10.23
2023-03-06T03:42:32.834Z,10.07
2023-03-06T03:45:34.502Z,9.88
2023-03-06T03:48:37.517Z,10.00
2023-03-06T03:51:41.210Z,9.95
2023-03-06T03:54:43.784Z,9.73
2023-03-06T03:57:45.499Z,10.82
2023-03-06T04:00:48.229Z,10.55
2023-03-06T04:03:50.668Z,10.27
2023-03-06T04:06:53.106Z,10.63
2023-03-06T04:09:55.050Z,10.48
2023-03-06T04:12:57.672Z,10.70
2023-03-06T04:16:02.315Z,10.40
2023-03-06T04:19:06.368Z,11.02
2023-03-06T04:22:10.628Z,10.73
2023-03-06T04:25:14.228Z,10.30
2023-03-06T04:28:16.778Z,11.07
2023-03-06T04:31:19.392Z,10.63
2023-03-06T04:34:21.328Z,10.33
2023-03-06T04:37:25.675Z,11.02
2023-03-06T04:40:31.054Z,10.15
2023-03-06T04:43:33.982Z,11.43
2023-03-06T04:46:36.893Z,11.45
2023-03-06T04:49:38.491Z,10.98
2023-03-06T04:52:41.176Z,10.88
2023-03-06T04:55:42.735Z,10.37
2023-03-06T04:58:45.059Z,10.75
2023-03-06T05:01:46.964Z,10.18
2023-03-06T05:04:48.527Z,9.97
2023-03-06T05:07:50.334Z,11.35
2023-03-06T05:11:00.486Z,11.02
2023-03-06T05:14:03.781Z,11.07
2023-03-06T05:17:05.869Z,11.57
2023-03-06T05:20:12.424Z,11.00
2023-03-06T05:23:14.830Z,11.75
2023-03-06T05:26:17.530Z,11.47
2023-03-06T05:29:20.876Z,11.38
2023-03-06T05:32:22.824Z,11.38
2023-03-06T05:35:24.743Z,12.93
2023-03-06T05:38:26.811Z,11.85
2023-03-06T05:41:28.366Z,11.25
2023-03-06T05:44:35.945Z,11.45
2023-03-06T05:47:37.601Z,11.90
2023-03-06T05:50:40.223Z,11.60
2023-03-06T05:53:41.867Z,11.75
2023-03-06T05:56:43.552Z,11.70
2023-03-06T05:59:46.394Z,11.48
2023-03-06T06:02:48.282Z,11.10
2023-03-06T06:05:50.928Z,11.33
2023-03-06T06:08:52.534Z,11.25
2023-03-06T06:11:57.114Z,11.07
2023-03-06T06:14:58.873Z,10.77
2023-03-06T06:18:00.845Z,11.55
2023-03-06T06:21:07.070Z,11.57
2023-03-06T06:24:09.999Z,11.30
2023-03-06T06:27:11.824Z,13.20
2023-03-06T06:30:13.757Z,11.70
2023-03-06T06:33:15.462Z,12.63
2023-03-06T06:36:20.237Z,12.93
2023-03-06T06:39:23.142Z,13.95
2023-03-06T06:42:38.890Z,15.00
2023-03-06T06:45:42.886Z,13.50
2023-03-06T06:48:49.301Z,12.35
2023-03-06T06:51:50.939Z,11.68
2023-03-06T06:54:52.943Z,12.63
2023-03-06T06:57:55.098Z,12.40
2023-03-06T07:00:56.649Z,11.73
2023-03-06T07:03:58.367Z,10.43
2023-03-06T07:07:01.655Z,10.97
2023-03-06T07:10:12.482Z,11.95
2023-03-06T07:13:14.090Z,12.57
2023-03-06T07:16:17.603Z,11.27
2023-03-06T07:19:19.217Z,12.10
2023-03-06T07:22:20.768Z,12.07
2023-03-06T07:25:22.511Z,11.20
2023-03-06T07:28:24.240Z,11.20
2023-03-06T07:31:27.383Z,11.57
2023-03-06T07:34:29.098Z,11.65
2023-03-06T07:37:30.717Z,10.67
2023-03-06T07:40:32.470Z,11.40
2023-03-06T07:43:34.618Z,10.85
2023-03-06T07:46:38.173Z,10.23
2023-03-06T07:49:41.138Z,9.68
2023-03-06T07:52:42.862Z,9.10
2023-03-06T07:55:44.442Z,9.93
2023-03-06T07:58:47.521Z,9.73
2023-03-06T08:01:49.099Z,9.18
2023-03-06T08:04:54.754Z,9.27
2023-03-06T08:07:56.303Z,7.43
2023-03-06T08:10:57.905Z,8.50
2023-03-06T08:14:00.233Z,8.85
2023-03-06T08:17:01.901Z,7.97
2023-03-06T08:20:06.011Z,8.93
2023-03-06T08:23:07.908Z,7.95
2023-03-06T08:26:16.307Z,8.93
2023-03-06T08:29:17.887Z,8.13
2023-03-06T08:32:19.533Z,8.68
2023-03-06T08:35:21.538Z,8.57
2023-03-06T08:38:23.285Z,8.80
2023-03-06T08:41:24.924Z,8.13
2023-03-06T08:44:26.531Z,8.18
2023-03-06T08:47:28.660Z,7.70
2023-03-06T08:50:30.271Z,8.48
2023-03-06T08:53:42.778Z,9.40
2023-03-06T08:56:45.910Z,8.05
2023-03-06T08:59:48.476Z,8.77
2023-03-06T09:02:50.926Z,8.40
2023-03-06T09:05:52.501Z,9.02
2023-03-06T09:08:54.714Z,8.47
2023-03-06T09:11:56.424Z,8.82
2023-03-06T09:14:58.011Z,9.20
2023-03-06T09:17:59.623Z,10.10
2023-03-06T09:21:01.624Z,9.60
2023-03-06T09:24:03.502Z,8.93
2023-03-06T09:27:07.417Z,9.18
2023-03-06T09:30:12.043Z,8.37
2023-03-06T09:33:14.780Z,10.20
2023-03-06T09:36:19.774Z,9.32
2023-03-06T09:39:23.947Z,9.37
2023-03-06T09:42:27.907Z,9.30
2023-03-06T09:45:31.358Z,8.98
2023-03-06T09:48:53.721Z,8.95
2023-03-06T09:52:20.715Z,9.75
2023-03-06T09:55:27.129Z,9.13
2023-03-06T09:58:31.446Z,8.43
2023-03-06T10:01:39.978Z,9.20
2023-03-06T10:04:46.541Z,8.40
2023-03-06T10:08:00.284Z,10.07
2023-03-06T10:11:08.028Z,9.90
2023-03-06T10:14:19.105Z,9.68
2023-03-06T10:17:23.843Z,9.50
2023-03-06T10:20:38.414Z,7.95
2023-03-06T10:23:59.181Z,8.68
2023-03-06T10:27:21.736Z,8.65
2023-03-06T10:30:42.164Z,8.35
2023-03-06T10:34:11.732Z,8.77
2023-03-06T10:37:19.950Z,8.90
2023-03-06T10:40:34.650Z,7.93
2023-03-06T10:43:44.279Z,8.50
2023-03-06T10:46:50.035Z,7.95
2023-03-06T10:49:59.256Z,9.40
2023-03-06T10:53:08.526Z,8.40
2023-03-06T10:56:11.404Z,9.90
2023-03-06T10:59:19.993Z,9.55
2023-03-06T11:02:43.684Z,9.68
2023-03-06T11:05:57.956Z,9.13
2023-03-06T11:09:25.640Z,7.38
2023-03-06T11:12:33.624Z,8.60
2023-03-06T11:15:35.572Z,8.77
2023-03-06T11:18:38.665Z,9.15
2023-03-06T11:21:41.037Z,8.57
2023-03-06T11:24:47.615Z,9.32
2023-03-06T11:28:04.116Z,8.65
2023-03-06T11:31:25.570Z,7.72
2023-03-06T11:35:08.079Z,7.78
2023-03-06T11:38:20.407Z,8.13
2023-03-06T11:41:51.208Z,9.05
2023-03-06T11:45:21.849Z,7.80
2023-03-06T11:48:35.587Z,9.40
2023-03-06T11:51:43.156Z,8.27
2023-03-06T11:54:53.750Z,9.27
2023-03-06T11:58:13.547Z,8.57
2023-03-06T12:01:24.753Z,8.38
2023-03-06T12:04:46.554Z,8.77
2023-03-06T12:08:02.149Z,8.20
2023-03-06T12:11:30.650Z,7.73
2023-03-06T12:14:52.981Z,9.20
2023-03-06T12:18:12.301Z,8.32
2023-03-06T12:21:19.133Z,7.77
2023-03-06T12:24:57.479Z,8.38
2023-03-06T12:28:22.880Z,8.40
2023-03-06T12:32:08.754Z,8.13
2023-03-06T12:35:52.558Z,7.72
2023-03-06T12:38:57.134Z,7.60
2023-03-06T12:42:23.517Z,8.05
2023-03-06T12:45:33.677Z,7.83
2023-03-06T12:48:37.996Z,7.40
2023-03-06T12:51:40.673Z,8.38
2023-03-06T12:54:45.997Z,7.23
2023-03-06T12:57:49.075Z,7.28
2023-03-06T13:01:13.400Z,7.10
2023-03-06T13:04:34.245Z,6.22
2023-03-06T13:08:24.878Z,6.80
2023-03-06T13:11:40.581Z,6.40
2023-03-06T13:14:54.019Z,6.32
2023-03-06T13:17:57.554Z,6.33
2023-03-06T13:20:59.374Z,5.85
2023-03-06T13:24:05.797Z,6.63
2023-03-06T13:27:11.160Z,6.13
2023-03-06T13:30:23.184Z,6.70
2023-03-06T13:33:32.925Z,6.22
2023-03-06T13:36:38.339Z,6.20
2023-03-06T13:39:57.350Z,6.47
2023-03-06T13:43:13.447Z,6.60
2023-03-06T13:46:26.102Z,6.50
2023-03-06T13:49:29.612Z,5.93
2023-03-06T13:52:54.307Z,6.70
2023-03-06T13:56:29.224Z,7.05
2023-03-06T13:59:37.544Z,5.77
2023-03-06T14:02:58.992Z,6.32
2023-03-06T14:06:01.218Z,5.90
2023-03-06T14:09:14.277Z,6.15
2023-03-06T14:12:24.505Z,5.97
2023-03-06T14:15:41.053Z,5.13
2023-03-06T14:18:49.639Z,5.47
2023-03-06T14:21:57.028Z,5.80
2023-03-06T14:25:16.614Z,5.65
2023-03-06T14:28:27.885Z,5.97
2023-03-06T14:31:36.065Z,5.80
2023-03-06T14:34:41.958Z,5.80
2023-03-06T14:37:49.906Z,5.55
2023-03-06T14:40:54.812Z,5.13
2023-03-06T14:44:20.536Z,5.70
2023-03-06T14:47:27.107Z,5.55
2023-03-06T14:50:33.065Z,5.65
2023-03-06T14:53:35.356Z,5.20
2023-03-06T14:56:42.978Z,5.55
2023-03-06T14:59:55.930Z,5.57
2023-03-06T15:02:58.393Z,5.30
2023-03-06T15:06:02.329Z,5.55
2023-03-06T15:09:27.058Z,4.93
2023-03-06T15:12:35.363Z,4.90
2023-03-06T15:15:37.575Z,5.50
2023-03-06T15:18:55.177Z,5.63
2023-03-06T15:21:57.848Z,5.25
2023-03-06T15:25:24.224Z,6.37
2023-03-06T15:28:39.591Z,5.35
2023-03-06T15:31:43.578Z,5.97
2023-03-06T15:34:48.517Z,5.03
2023-03-06T15:37:51.010Z,5.50
2023-03-06T15:41:01.382Z,5.53
2023-03-06T15:44:13.391Z,4.72
2023-03-06T15:47:15.071Z,7.20
2023-03-06T15:50:20.574Z,7.70
2023-03-06T15:53:22.251Z,7.18
2023-03-06T15:56:34.033Z,11.97
2023-03-06T15:59:43.286Z,6.82
2023-03-06T16:02:45.244Z,7.45
2023-03-06T16:05:46.839Z,8.63
2023-03-06T16:08:49.226Z,8.38
2023-03-06T16:11:51.752Z,6.18
2023-03-06T16:14:53.736Z,26.67
2023-03-06T16:17:56.918Z,11.23
2023-03-06T16:20:58.522Z,7.43
2023-03-06T16:24:00.779Z,6.45
2023-03-06T16:27:03.365Z,5.37
2023-03-06T16:30:05.523Z,6.70
2023-03-06T16:33:09.237Z,7.93
2023-03-06T16:36:18.664Z,8.60
2023-03-06T16:39:24.458Z,8.07
2023-03-06T16:42:26.113Z,8.48
2023-03-06T16:45:27.832Z,7.50
2023-03-06T16:48:29.910Z,8.00
2023-03-06T16:51:31.879Z,7.30
2023-03-06T16:54:34.177Z,5.30
2023-03-06T16:57:36.251Z,5.13
2023-03-06T17:00:37.866Z,5.65
2023-03-06T17:03:40.630Z,5.88
2023-03-06T17:06:43.548Z,5.63
2023-03-06T17:09:46.925Z,5.90
2023-03-06T17:12:50.649Z,6.53
2023-03-06T17:15:56.231Z,6.90
2023-03-06T17:18:58.449Z,6.25
2023-03-06T17:22:00.040Z,6.53
2023-03-06T17:25:02.623Z,7.20
2023-03-06T17:28:04.405Z,6.80
2023-03-06T17:31:22.392Z,6.90
2023-03-06T17:34:24.684Z,6.18
2023-03-06T17:37:26.518Z,6.20
2023-03-06T17:40:28.195Z,6.63
2023-03-06T17:43:30.005Z,5.65
2023-03-06T17:46:32.140Z,5.82
2023-03-06T17:49:33.890Z,5.60
2023-03-06T17:52:35.548Z,5.50
2023-03-06T17:55:38.758Z,5.93
2023-03-06T17:58:40.345Z,7.10
2023-03-06T18:01:45.727Z,7.32
2023-03-06T18:04:47.405Z,8.93
2023-03-06T18:07:49.103Z,10.10
2023-03-06T18:10:52.108Z,9.77
2023-03-06T18:13:53.789Z,10.43
2023-03-06T18:16:55.389Z,10.90
2023-03-06T18:19:57.158Z,11.93
2023-03-06T18:23:03.413Z,13.07
2023-03-06T18:26:24.618Z,12.60
2023-03-06T18:29:27.611Z,13.13
2023-03-06T18:32:29.482Z,12.55
2023-03-06T18:35:34.130Z,12.95
2023-03-06T18:38:38.556Z,11.90
2023-03-06T18:41:40.196Z,12.35
2023-03-06T18:44:41.884Z,10.95
2023-03-06T18:47:45.589Z,8.73
2023-03-06T18:50:47.416Z,8.35
2023-03-06T18:53:50.111Z,8.73
2023-03-06T18:56:52.485Z,8.95
2023-03-06T18:59:55.261Z,8.90
2023-03-06T19:02:56.923Z,9.60
2023-03-06T19:05:59.400Z,9.35
2023-03-06T19:09:02.313Z,9.00
2023-03-06T19:12:04.210Z,8.98
2023-03-06T19:15:06.366Z,10.05
2023-03-06T19:18:08.006Z,9.95
2023-03-06T19:21:15.745Z,13.18
2023-03-06T19:24:18.540Z,15.23
2023-03-06T19:27:20.576Z,14.40
2023-03-06T19:30:25.627Z,13.07
2023-03-06T19:33:27.372Z,13.70
2023-03-06T19:36:33.597Z,14.35
2023-03-06T19:48:00.947Z,14.48
2023-03-06T19:51:04.335Z,14.70
2023-03-06T19:55:24.670Z,13.05
2023-03-06T19:58:57.686Z,9.50
2023-03-06T20:07:42.887Z,6.47
2023-03-06T20:14:37.533Z,6.07
2023-03-06T20:17:40.695Z,5.07
2023-03-06T20:32:30.594Z,13.48
2023-03-06T20:39:28.950Z,8.68
2023-03-06T20:42:30.577Z,7.53
2023-03-06T20:46:29.669Z,7.18
2023-03-06T20:49:31.594Z,6.05
2023-03-06T20:53:01.117Z,6.20
2023-03-06T21:00:27.689Z,5.75
2023-03-06T21:03:32.601Z,6.15
2023-03-06T21:07:09.156Z,6.25
2023-03-06T21:14:25.541Z,9.35
2023-03-06T21:17:27.628Z,8.43
2023-03-06T21:20:29.179Z,6.60
2023-03-06T21:24:10.341Z,6.10
2023-03-06T21:32:31.623Z,5.78
2023-03-06T21:35:44.506Z,5.47
2023-03-06T21:38:47.300Z,5.50
2023-03-06T21:41:49.493Z,5.60
2023-03-06T21:44:53.156Z,5.82
2023-03-06T21:47:54.742Z,5.65
2023-03-06T21:51:10.541Z,5.90
2023-03-06T21:54:13.055Z,5.80
2023-03-06T21:57:14.726Z,5.75
2023-03-06T22:00:31.542Z,5.37
2023-03-06T22:03:33.195Z,6.35
2023-03-06T22:06:34.879Z,5.30
2023-03-06T22:09:37.379Z,5.10
2023-03-06T22:12:40.471Z,5.10
2023-03-06T22:15:55.129Z,5.43
2023-03-06T22:19:09.989Z,5.18
2023-03-06T22:22:18.434Z,5.30
2023-03-06T22:25:23.522Z,5.03
2023-03-06T22:28:27.107Z,5.13
2023-03-06T22:31:29.149Z,5.20
2023-03-06T22:34:46.025Z,5.10
2023-03-06T22:37:48.309Z,5.13
2023-03-06T22:40:50.985Z,5.13
2023-03-06T22:43:57.142Z,5.18
2023-03-06T22:46:58.721Z,5.13
2023-03-06T22:50:00.308Z,5.10
2023-03-06T22:53:01.836Z,5.53
2023-03-06T22:56:05.986Z,5.43
2023-03-06T22:59:07.666Z,4.93
2023-03-06T23:02:09.961Z,5.60
2023-03-06T23:05:11.546Z,5.13
2023-03-06T23:08:13.164Z,5.00
2023-03-06T23:11:17.381Z,5.05
2023-03-06T23:14:37.805Z,5.13
2023-03-06T23:17:58.355Z,5.53
2023-03-06T23:21:21.714Z,5.47
2023-03-06T23:24:41.802Z,4.80
2023-03-06T23:27:43.449Z,5.32
2023-03-06T23:30:45.145Z,5.30
2023-03-06T23:33:47.338Z,5.37
2023-03-06T23:36:50.453Z,5.40
2023-03-06T23:39:52.230Z,5.85
2023-03-06T23:42:56.004Z,5.25
2023-03-06T23:45:58.973Z,5.15
2023-03-06T23:49:01.919Z,5.38
2023-03-06T23:52:04.403Z,4.80
2023-03-06T23:55:06.892Z,5.20
2023-03-06T23:58:08.553Z,5.05
